sensor_id;sensor_type;location;lat;lon;timestamp;pressure;altitude;pressure_sealevel;temperature;humidity
31011;BME280;26395;53.412;19.598;2023-09-12T00:01:04;100120.18;;;18.84;90.88
31011;BME280;26395;53.412;19.598;2023-09-12T00:16:09;100114.25;;;18.82;90.56
31011;BME280;26395;53.412;19.598;2023-09-12T00:31:15;100106.23;;;18.66;91.32
31011;BME280;26395;53.412;19.598;2023-09-12T00:46:18;100100.27;;;18.45;92.48
31011;BME280;26395;53.412;19.598;2023-09-12T01:01:22;100095.20;;;18.33;92.08
31011;BME280;26395;53.412;19.598;2023-09-12T01:16:26;100094.30;;;18.23;92.00
31011;BME280;26395;53.412;19.598;2023-09-12T01:31:29;100089.09;;;18.11;91.44
31011;BME280;26395;53.412;19.598;2023-09-12T01:46:34;100089.95;;;17.99;90.76
31011;BME280;26395;53.412;19.598;2023-09-12T02:01:39;100086.19;;;17.82;91.20
31011;BME280;26395;53.412;19.598;2023-09-12T02:16:42;100081.11;;;17.69;91.39
31011;BME280;26395;53.412;19.598;2023-09-12T02:31:46;100088.20;;;17.51;91.75
31011;BME280;26395;53.412;19.598;2023-09-12T02:46:50;100087.49;;;17.33;91.64
31011;BME280;26395;53.412;19.598;2023-09-12T03:01:54;100092.16;;;17.22;91.96
31011;BME280;26395;53.412;19.598;2023-09-12T03:16:57;100096.80;;;17.19;91.46
31011;BME280;26395;53.412;19.598;2023-09-12T03:32:01;100101.39;;;17.05;91.65
31011;BME280;26395;53.412;19.598;2023-09-12T03:47:06;100104.40;;;16.91;91.96
31011;BME280;26395;53.412;19.598;2023-09-12T04:02:10;100111.16;;;16.79;92.16
31011;BME280;26395;53.412;19.598;2023-09-12T04:17:14;100113.48;;;16.65;92.47
31011;BME280;26395;53.412;19.598;2023-09-12T04:32:17;100118.33;;;16.63;92.47
31011;BME280;26395;53.412;19.598;2023-09-12T04:47:27;100118.08;;;16.70;92.65
31011;BME280;26395;53.412;19.598;2023-09-12T05:02:30;100126.17;;;16.77;93.16
31011;BME280;26395;53.412;19.598;2023-09-12T05:17:34;100120.17;;;17.30;92.43
31011;BME280;26395;53.412;19.598;2023-09-12T05:32:37;100126.40;;;18.33;89.70
31011;BME280;26395;53.412;19.598;2023-09-12T05:47:40;100131.48;;;18.90;87.69
31011;BME280;26395;53.412;19.598;2023-09-12T06:02:45;100130.63;;;19.91;86.63
31011;BME280;26395;53.412;19.598;2023-09-12T06:17:49;100139.47;;;24.26;80.11
31011;BME280;26395;53.412;19.598;2023-09-12T06:32:53;100152.73;;;27.23;72.64
31011;BME280;26395;53.412;19.598;2023-09-12T06:47:56;100162.73;;;28.80;68.22
31011;BME280;26395;53.412;19.598;2023-09-12T07:02:59;100159.45;;;30.26;65.72
31011;BME280;26395;53.412;19.598;2023-09-12T07:18:03;100159.92;;;31.89;63.91
31011;BME280;26395;53.412;19.598;2023-09-12T07:33:07;100164.14;;;33.20;62.92
31011;BME280;26395;53.412;19.598;2023-09-12T07:48:10;100163.71;;;35.24;60.96
31011;BME280;26395;53.412;19.598;2023-09-12T08:03:14;100149.31;;;35.45;56.75
31011;BME280;26395;53.412;19.598;2023-09-12T08:18:21;100151.94;;;35.68;54.23
31011;BME280;26395;53.412;19.598;2023-09-12T08:33:24;100155.01;;;36.14;53.72
31011;BME280;26395;53.412;19.598;2023-09-12T08:48:28;100148.81;;;37.12;52.99
31011;BME280;26395;53.412;19.598;2023-09-12T09:03:32;100152.15;;;36.96;52.13
31011;BME280;26395;53.412;19.598;2023-09-12T09:18:54;100144.66;;;37.12;50.93
31011;BME280;26395;53.412;19.598;2023-09-12T09:33:58;100138.11;;;36.47;50.21
31011;BME280;26395;53.412;19.598;2023-09-12T09:49:02;100140.27;;;36.61;50.18
31011;BME280;26395;53.412;19.598;2023-09-12T10:04:05;100137.27;;;36.74;49.95
31011;BME280;26395;53.412;19.598;2023-09-12T10:23:30;100125.89;;;37.39;48.75
31011;BME280;26395;53.412;19.598;2023-09-12T10:38:32;100121.34;;;36.84;47.24
31011;BME280;26395;53.412;19.598;2023-09-12T10:53:36;100112.35;;;36.39;45.63
31011;BME280;26395;53.412;19.598;2023-09-12T11:08:40;100107.73;;;36.47;46.92
31011;BME280;26395;53.412;19.598;2023-09-12T11:23:43;100107.80;;;36.89;46.87
31011;BME280;26395;53.412;19.598;2023-09-12T11:39:01;100085.79;;;36.99;45.89
31011;BME280;26395;53.412;19.598;2023-09-12T11:54:05;100080.65;;;36.80;45.10
31011;BME280;26395;53.412;19.598;2023-09-12T12:09:08;100076.89;;;36.57;45.93
31011;BME280;26395;53.412;19.598;2023-09-12T12:24:13;100072.64;;;36.56;45.67
31011;BME280;26395;53.412;19.598;2023-09-12T12:39:17;100059.86;;;35.76;43.86
31011;BME280;26395;53.412;19.598;2023-09-12T12:54:21;100053.84;;;35.30;43.72
31011;BME280;26395;53.412;19.598;2023-09-12T13:09:27;100058.70;;;34.45;43.68
31011;BME280;26395;53.412;19.598;2023-09-12T13:24:31;100054.57;;;33.80;44.65
31011;BME280;26395;53.412;19.598;2023-09-12T13:39:34;100056.41;;;34.03;45.16
31011;BME280;26395;53.412;19.598;2023-09-12T13:54:38;100046.55;;;34.02;46.29
31011;BME280;26395;53.412;19.598;2023-09-12T14:09:41;100041.41;;;33.96;47.35
31011;BME280;26395;53.412;19.598;2023-09-12T14:24:46;100041.23;;;33.38;47.00
31011;BME280;26395;53.412;19.598;2023-09-12T14:39:50;100033.38;;;33.35;48.69
31011;BME280;26395;53.412;19.598;2023-09-12T14:54:54;100025.20;;;32.61;48.09
31011;BME280;26395;53.412;19.598;2023-09-12T15:09:57;100020.95;;;32.27;49.17
31011;BME280;26395;53.412;19.598;2023-09-12T15:25:01;100016.81;;;32.45;51.28
31011;BME280;26395;53.412;19.598;2023-09-12T15:40:05;100021.66;;;32.63;52.55
31011;BME280;26395;53.412;19.598;2023-09-12T15:55:09;100009.13;;;32.26;52.78
31011;BME280;26395;53.412;19.598;2023-09-12T16:10:13;100018.51;;;31.89;54.08
31011;BME280;26395;53.412;19.598;2023-09-12T16:25:18;100034.11;;;31.08;55.89
31011;BME280;26395;53.412;19.598;2023-09-12T16:40:22;100038.36;;;29.83;57.85
31011;BME280;26395;53.412;19.598;2023-09-12T16:55:26;100040.56;;;28.29;59.37
31011;BME280;26395;53.412;19.598;2023-09-12T17:10:29;100042.11;;;27.12;61.61
31011;BME280;26395;53.412;19.598;2023-09-12T17:25:33;100043.95;;;26.17;63.42
31011;BME280;26395;53.412;19.598;2023-09-12T17:40:37;100039.52;;;25.58;65.10
31011;BME280;26395;53.412;19.598;2023-09-12T17:55:43;100051.38;;;25.32;67.08
31011;BME280;26395;53.412;19.598;2023-09-12T18:10:47;100067.57;;;24.76;67.74
31011;BME280;26395;53.412;19.598;2023-09-12T18:25:57;100071.59;;;24.10;69.46
31011;BME280;26395;53.412;19.598;2023-09-12T18:41:02;100071.95;;;23.58;70.79
31011;BME280;26395;53.412;19.598;2023-09-12T18:56:05;100073.92;;;23.20;73.03
31011;BME280;26395;53.412;19.598;2023-09-12T19:11:09;100070.99;;;22.85;74.36
31011;BME280;26395;53.412;19.598;2023-09-12T19:26:13;100068.22;;;22.71;75.53
31011;BME280;26395;53.412;19.598;2023-09-12T19:41:19;100060.38;;;22.52;77.34
31011;BME280;26395;53.412;19.598;2023-09-12T19:56:22;100054.03;;;22.27;78.54
31011;BME280;26395;53.412;19.598;2023-09-12T20:11:25;100059.30;;;22.13;79.07
31011;BME280;26395;53.412;19.598;2023-09-12T20:26:29;100060.42;;;21.90;79.48
31011;BME280;26395;53.412;19.598;2023-09-12T20:41:33;100064.88;;;21.64;79.85
31011;BME280;26395;53.412;19.598;2023-09-12T20:56:37;100067.47;;;21.40;79.87
31011;BME280;26395;53.412;19.598;2023-09-12T21:11:42;100062.33;;;21.07;80.44
31011;BME280;26395;53.412;19.598;2023-09-12T21:26:45;100062.79;;;20.85;81.17
31011;BME280;26395;53.412;19.598;2023-09-12T21:41:48;100069.61;;;20.65;82.13
31011;BME280;26395;53.412;19.598;2023-09-12T21:56:52;100062.08;;;20.51;82.45
31011;BME280;26395;53.412;19.598;2023-09-12T22:11:55;100060.06;;;20.28;82.92
31011;BME280;26395;53.412;19.598;2023-09-12T22:26:59;100060.76;;;20.15;82.98
31011;BME280;26395;53.412;19.598;2023-09-12T22:42:02;100066.92;;;19.96;83.87
31011;BME280;26395;53.412;19.598;2023-09-12T22:57:05;100063.70;;;19.84;84.81
31011;BME280;26395;53.412;19.598;2023-09-12T23:12:08;100063.25;;;19.63;85.82
31011;BME280;26395;53.412;19.598;2023-09-12T23:27:12;100063.86;;;19.50;85.85
31011;BME280;26395;53.412;19.598;2023-09-12T23:42:15;100056.48;;;19.41;85.33
31011;BME280;26395;53.412;19.598;2023-09-12T23:57:19;100052.11;;;19.24;86.21
